Sterling, Illinois
Current Conditions -  °F | °C
As of 9:55 PM on Friday 28 Nov 2014 (Local Time) from KSQI Reporting Station
Clear Clear  
Wind Chill: 25°   Ceiling: Unl
Heat Index: 30°   Visibility: 8mi
Dew Point: 25°   Wind: 5mph
Humidity: 80%   Direction: 130°SE
Pressure: 29.85"   Gusts: NA
Location:  41.79°N, 89.7°W
Report Text: KSQI 290355Z 13004KT 8SM CLR M01/M04 A2985 RMK AO1
Loading
Personal Weather Stations






























Interactive Weather Map New forecast layout! Learn more

10-Day Weather Forecast

Advertisements
Track Severe Weather on mobile